Terminal Aerodrome Forecast
Issued by NWS

Home | Current Version | Previous Version | Text Only | Print | Product List | Glossary On
Versions: 1 2 3 4 5 6 7 8 9 10 11 12 13 14 15 16 17 18 19 20 21 22
000
FTUS46 KLOX 032227 AAC
TAFOXR
TAF AMD
KOXR 032227Z 0322/0418 28011KT P6SM SCT008
     FM040000 25012KT P6SM BKN010
     FM040300 VRB03KT P6SM SKC
     FM040600 VRB03KT 5SM HZ OVC007
     FM041000 VRB03KT 5SM HZ OVC010=

USA.gov is the U.S. government's official web portal to all federal, state and local government web resources and services.